サンフアン の空港の天気 - METARとTAF

ルイス・ムニョス・マリン国際空港 ( TJSJ / SJU ) - プエルトリコ サンフアン
飛行場実況気象(Metar)
観測時間08/22 11:56 AST (08/22 15:56 UTC)
風向・風速静穏 0m/s
視程10km以上
天気現象弱い雨
少しの雲 雲底高度 490m
全天の4割程度の雲 雲底高度 1130m
全天の8割程度の雲 雲底高度 1830m
気温26.1℃
湿度90%
気圧1017.1hPa
METARTJSJ 221556Z 00000KT 9SM -RA FEW016 SCT037 BKN060 26/24 A3004 RMK AO2 RAB46 SLP171 VIS 3 W P0006 T02610244 $
過去の天気等 Google飛行場航空写真 Wunderground天気予報

過去48時間のMETAR

飛行場予報(TAF)
発表時間: 8/22 09:50 AST (8/22 13:50 UTC)
予報対象時間: 22日10時 AST ~ 23日8時 AST
風向・風速南東 3m/s
視程10km以上
天気現象周辺でしゅう雨
全天の4割程度の雲 雲底高度 910m
全天の4割程度の雲 雲底高度 2440m
22日10時 AST ~ 22日12時 AST に一時的に
風向・風速不定 8m/s
天気現象弱いしゅう雨
全天の4割程度の雲 雲底高度 760m
全天の4割程度の雲 雲底高度 1220m
22日12時 AST から
風向・風速東 7m/s 瞬間風速 11m/s
視程10km以上
天気現象周辺で雷
全天の4割程度の積乱雲 雲底高度 910m
全天の8割程度の雲 雲底高度 1830m
22日19時 AST から
風向・風速東南東 4m/s
視程10km以上
天気現象周辺でしゅう雨
少しの雲 雲底高度 790m
全天の4割程度の雲 雲底高度 1830m
TJSJ 221350Z 2214/2312 13006KT P6SM VCSH SCT030 SCT080
TEMPO 2214/2216 VRB15KT -SHRA SCT025 SCT040
FM221600 09014G21KT P6SM VCTS SCT030CB BKN060
FM222300 11007KT P6SM VCSH FEW026 SCT060